Time;durP1;ratioP1;P1;durP2;ratioP2;P2;SDS_P1;SDS_P2;PMS_P1;PMS_P2;Temp;Humidity;BMP_temperature;BMP_pressure;BME280_temperature;BME280_humidity;BME280_pressure;Samples;Min_cycle;Max_cycle;Signal;HPM_P1;HPM_P2
2023/07/06 00:02:47;;;;;;;2.57;0.93;;;;;;;;;;6175645;28;20036;-66
2023/07/06 00:05:47;;;;;;;;;;;;;;;;;;6174317;28;20038;-69
2023/07/06 00:08:47;;;;;;;1.42;1.02;;;;;;;;;;6175278;28;19921;-68
2023/07/06 00:11:48;;;;;;;1.03;0.93;;;;;;;;;;6175405;28;20083;-70
2023/07/06 00:14:50;;;;;;;1.40;0.90;;;;;;;;;;6172770;28;20251;-70
2023/07/06 00:17:50;;;;;;;1.50;1.10;;;;;;;;;;6180144;28;20022;-70
2023/07/06 00:20:50;;;;;;;1.37;1.10;;;;;;;;;;6170953;28;20103;-70
2023/07/06 00:23:50;;;;;;;;;;;;;;;;;;6175752;28;20022;-70
2023/07/06 00:26:51;;;;;;;1.42;0.93;;;;;;;;;;6174414;28;19945;-69
2023/07/06 00:30:07;;;;;;;;;;;;;;;;;;6175843;28;20380;-68
2023/07/06 00:33:08;;;;;;;1.77;0.90;;;;;;;;;;6179484;28;19919;-67
2023/07/06 00:36:08;;;;;;;1.55;0.93;;;;;;;;;;6176579;28;20014;-67
2023/07/06 00:39:12;;;;;;;;;;;;;;;;;;6176776;28;20113;-67
2023/07/06 00:42:14;;;;;;;1.60;1.02;;;;;;;;;;6167840;28;19914;-68
2023/07/06 00:45:15;;;;;;;1.30;1.00;;;;;;;;;;6181520;28;20057;-67
2023/07/06 00:48:27;;;;;;;1.00;0.80;;;;;;;;;;6182021;28;20065;-69
2023/07/06 00:51:32;;;;;;;3.38;0.98;;;;;;;;;;6191341;28;20014;-69
2023/07/06 00:54:35;;;;;;;1.33;0.88;;;;;;;;;;6178922;28;20113;-69
2023/07/06 00:57:38;;;;;;;1.25;0.98;;;;;;;;;;6179160;28;20713;-68
2023/07/06 01:00:40;;;;;;;1.70;0.95;;;;;;;;;;6185353;28;20027;-73
2023/07/06 01:03:44;;;;;;;0.98;0.93;;;;;;;;;;6190261;28;20028;-69
2023/07/06 01:06:49;;;;;;;0.80;0.77;;;;;;;;;;6190049;28;20033;-72
2023/07/06 01:09:50;;;;;;;0.88;0.75;;;;;;;;;;6194430;28;20090;-70
2023/07/06 01:12:50;;;;;;;1.83;0.93;;;;;;;;;;6194831;28;20491;-67
2023/07/06 01:15:56;;;;;;;2.87;1.00;;;;;;;;;;6175211;28;20296;-67
2023/07/06 01:18:59;;;;;;;1.42;0.73;;;;;;;;;;6176504;28;20031;-70
2023/07/06 01:22:22;;;;;;;1.90;1.00;;;;;;;;;;6178431;28;20373;-69
2023/07/06 01:25:25;;;;;;;1.15;1.00;;;;;;;;;;6175872;28;20046;-66
2023/07/06 01:28:45;;;;;;;0.82;0.73;;;;;;;;;;6179750;28;20026;-67
2023/07/06 01:31:51;;;;;;;1.50;0.90;;;;;;;;;;6175057;28;20313;-71
2023/07/06 01:35:07;;;;;;;1.75;0.98;;;;;;;;;;6177048;28;20021;-71
2023/07/06 01:38:07;;;;;;;1.83;1.20;;;;;;;;;;6174214;28;20027;-68
2023/07/06 01:41:10;;;;;;;1.30;0.90;;;;;;;;;;6173843;28;20103;-69
2023/07/06 01:44:12;;;;;;;1.50;1.10;;;;;;;;;;6179522;28;20042;-67
2023/07/06 01:47:13;;;;;;;1.83;0.77;;;;;;;;;;6176447;28;20023;-67
2023/07/06 01:50:15;;;;;;;1.27;1.00;;;;;;;;;;6169334;28;20368;-71
2023/07/06 01:53:24;;;;;;;2.58;1.30;;;;;;;;;;6182390;28;20025;-72
2023/07/06 01:56:28;;;;;;;1.27;0.90;;;;;;;;;;6173709;28;20034;-71
2023/07/06 01:59:32;;;;;;;1.30;0.93;;;;;;;;;;6178833;28;20414;-73
2023/07/06 02:02:33;;;;;;;1.55;1.10;;;;;;;;;;6178477;28;20177;-72
2023/07/06 02:05:36;;;;;;;1.65;0.93;;;;;;;;;;6179215;28;20035;-72
2023/07/06 02:08:41;;;;;;;2.60;1.15;;;;;;;;;;6184492;28;20411;-71
2023/07/06 02:11:41;;;;;;;2.60;1.27;;;;;;;;;;6175883;28;20022;-70
2023/07/06 02:14:42;;;;;;;1.93;0.80;;;;;;;;;;6176518;28;20044;-71
2023/07/06 02:17:43;;;;;;;1.00;0.90;;;;;;;;;;6177670;28;20108;-72
2023/07/06 02:20:47;;;;;;;1.63;0.93;;;;;;;;;;6183019;28;20038;-72
2023/07/06 02:23:47;;;;;;;1.45;0.90;;;;;;;;;;6177194;28;20057;-70
2023/07/06 02:26:48;;;;;;;4.60;1.10;;;;;;;;;;6177612;28;20075;-71
2023/07/06 02:29:48;;;;;;;1.52;1.00;;;;;;;;;;6181501;28;20447;-70
2023/07/06 02:32:49;;;;;;;1.70;0.83;;;;;;;;;;6175982;28;20052;-70
2023/07/06 02:35:49;;;;;;;1.15;0.95;;;;;;;;;;6180025;28;20097;-70
2023/07/06 02:38:49;;;;;;;1.30;0.97;;;;;;;;;;6177409;28;20061;-70
2023/07/06 02:41:53;;;;;;;1.00;0.90;;;;;;;;;;6175083;28;20103;-69
2023/07/06 02:44:53;;;;;;;1.35;0.90;;;;;;;;;;6179814;28;20047;-71
2023/07/06 02:47:54;;;;;;;1.30;1.08;;;;;;;;;;6177406;28;20034;-71
2023/07/06 02:50:54;;;;;;;1.00;0.83;;;;;;;;;;6177779;28;20333;-69
2023/07/06 02:53:56;;;;;;;1.63;1.17;;;;;;;;;;6183907;28;20023;-70
2023/07/06 02:56:56;;;;;;;1.17;1.05;;;;;;;;;;6182779;28;20476;-72
2023/07/06 02:59:56;;;;;;;2.23;1.00;;;;;;;;;;6189959;28;20509;-71
2023/07/06 03:02:58;;;;;;;0.90;0.73;;;;;;;;;;6204943;28;20031;-72
2023/07/06 03:06:01;;;;;;;1.35;0.88;;;;;;;;;;6177314;28;20034;-71
2023/07/06 03:09:02;;;;;;;1.42;1.02;;;;;;;;;;6182695;28;20030;-71
2023/07/06 03:12:05;;;;;;;1.40;1.00;;;;;;;;;;6180539;28;20024;-70
2023/07/06 03:15:06;;;;;;;1.50;1.02;;;;;;;;;;6176873;28;20281;-72
2023/07/06 03:18:06;;;;;;;;;;;;;;;;;;6176055;28;20444;-71
2023/07/06 03:21:06;;;;;;;0.80;0.70;;;;;;;;;;6175634;28;19920;-72
2023/07/06 03:24:07;;;;;;;1.30;1.10;;;;;;;;;;6169367;28;20023;-71
2023/07/06 03:27:07;;;;;;;1.63;0.95;;;;;;;;;;6173941;28;20130;-71
2023/07/06 03:30:09;;;;;;;0.80;0.80;;;;;;;;;;6172857;28;20114;-70
2023/07/06 03:33:10;;;;;;;1.05;0.95;;;;;;;;;;6174367;28;20041;-70
2023/07/06 03:36:11;;;;;;;1.50;0.93;;;;;;;;;;6175215;28;20019;-71
2023/07/06 03:39:12;;;;;;;;;;;;;;;;;;6176752;28;20575;-70
2023/07/06 03:42:12;;;;;;;0.87;0.70;;;;;;;;;;6179407;28;19922;-71
2023/07/06 03:45:13;;;;;;;1.07;0.83;;;;;;;;;;6178406;28;20289;-72
2023/07/06 03:48:15;;;;;;;1.35;0.95;;;;;;;;;;6172860;28;20402;-72
2023/07/06 03:51:15;;;;;;;;;;;;;;;;;;6192157;28;20030;-71
2023/07/06 03:54:15;;;;;;;1.30;0.93;;;;;;;;;;6193959;28;19936;-71
2023/07/06 03:57:16;;;;;;;2.05;1.38;;;;;;;;;;6187567;28;20042;-71
2023/07/06 04:00:20;;;;;;;1.52;1.40;;;;;;;;;;6181281;28;20031;-72
2023/07/06 04:03:20;;;;;;;1.52;1.20;;;;;;;;;;6190156;28;20070;-71
2023/07/06 04:06:23;;;;;;;1.00;0.87;;;;;;;;;;6185962;28;20057;-70
2023/07/06 04:09:25;;;;;;;1.00;0.90;;;;;;;;;;6182887;28;20027;-72
2023/07/06 04:12:25;;;;;;;2.45;1.00;;;;;;;;;;6184492;28;20018;-72
2023/07/06 04:15:25;;;;;;;1.57;1.30;;;;;;;;;;6185520;28;20065;-72
2023/07/06 04:18:26;;;;;;;1.42;1.20;;;;;;;;;;6177569;28;20079;-72
2023/07/06 04:21:28;;;;;;;1.83;0.97;;;;;;;;;;6175037;28;20046;-71
2023/07/06 04:24:31;;;;;;;1.75;1.33;;;;;;;;;;6176818;28;20037;-72
2023/07/06 04:27:31;;;;;;;2.00;1.30;;;;;;;;;;6173970;28;20034;-72
2023/07/06 04:30:36;;;;;;;1.37;1.00;;;;;;;;;;6175027;28;20050;-72
2023/07/06 04:33:36;;;;;;;1.05;0.93;;;;;;;;;;6180578;28;20426;-73
2023/07/06 04:36:39;;;;;;;1.63;1.10;;;;;;;;;;6182753;28;20399;-73
2023/07/06 04:39:42;;;;;;;2.53;1.60;;;;;;;;;;6182970;28;20054;-71
2023/07/06 04:42:42;;;;;;;1.40;1.20;;;;;;;;;;6181657;28;20026;-72
2023/07/06 04:45:44;;;;;;;2.67;1.30;;;;;;;;;;6184804;28;20107;-72
2023/07/06 04:48:44;;;;;;;1.10;1.00;;;;;;;;;;6176444;28;20491;-70
2023/07/06 04:51:45;;;;;;;1.00;0.90;;;;;;;;;;6177210;28;20019;-70
2023/07/06 04:54:45;;;;;;;1.17;1.00;;;;;;;;;;6176490;28;20494;-70
2023/07/06 04:57:46;;;;;;;1.00;0.90;;;;;;;;;;6180214;28;20027;-70
2023/07/06 05:00:46;;;;;;;2.03;0.93;;;;;;;;;;6188660;28;20038;-70
2023/07/06 05:03:46;;;;;;;1.70;1.17;;;;;;;;;;6172542;28;20254;-71
2023/07/06 05:06:47;;;;;;;;;;;;;;;;;;6176803;28;20124;-71
2023/07/06 05:09:48;;;;;;;1.02;0.80;;;;;;;;;;6173868;28;20569;-71
2023/07/06 05:12:48;;;;;;;1.30;0.80;;;;;;;;;;6181297;28;20056;-71
2023/07/06 05:15:49;;;;;;;1.37;1.10;;;;;;;;;;6184526;28;20075;-69
2023/07/06 05:25:39;;;;;;;0.95;0.80;;;;;;;;;;6226538;28;20370;-71
2023/07/06 05:28:39;;;;;;;1.80;0.90;;;;;;;;;;6233981;28;20136;-70
2023/07/06 05:31:40;;;;;;;;;;;;;;;;;;6233535;28;20018;-69
2023/07/06 05:34:41;;;;;;;0.95;0.90;;;;;;;;;;6243967;28;19917;-69
2023/07/06 05:37:41;;;;;;;;;;;;;;;;;;6248218;28;20029;-69
2023/07/06 05:40:42;;;;;;;1.58;1.10;;;;;;;;;;6225809;28;19939;-68
2023/07/06 05:43:42;;;;;;;;;;;;;;;;;;6240700;28;20083;-69
2023/07/06 05:46:42;;;;;;;2.33;1.00;;;;;;;;;;6232419;28;19932;-69
2023/07/06 05:49:42;;;;;;;1.23;1.03;;;;;;;;;;6227313;28;20105;-69
2023/07/06 05:52:42;;;;;;;;;;;;;;;;;;6234256;28;20084;-70
2023/07/06 05:55:43;;;;;;;1.23;0.85;;;;;;;;;;6232696;28;19913;-69
2023/07/06 05:58:44;;;;;;;;;;;;;;;;;;6233450;28;20140;-69
2023/07/06 06:01:44;;;;;;;1.60;0.90;;;;;;;;;;6234412;28;19917;-71
2023/07/06 06:04:45;;;;;;;;;;;;;;;;;;6229936;28;20276;-69
2023/07/06 06:07:45;;;;;;;1.30;1.00;;;;;;;;;;6232558;28;19960;-71
2023/07/06 06:10:45;;;;;;;;;;;;;;;;;;6232542;28;20025;-69
2023/07/06 06:13:47;;;;;;;0.82;0.70;;;;;;;;;;6231852;28;19944;-72
2023/07/06 06:16:47;;;;;;;1.25;0.90;;;;;;;;;;6228007;28;22692;-70
2023/07/06 06:19:48;;;;;;;;;;;;;;;;;;6232801;28;20040;-73
2023/07/06 06:22:48;;;;;;;0.90;0.90;;;;;;;;;;6233121;28;20341;-72
2023/07/06 06:25:49;;;;;;;1.45;1.20;;;;;;;;;;5882892;28;10000374;-69
2023/07/06 06:28:49;;;;;;;;;;;;;;;;;;6225718;28;20033;-70
2023/07/06 06:31:50;;;;;;;1.58;1.05;;;;;;;;;;6230888;28;19927;-71
2023/07/06 06:34:50;;;;;;;1.25;1.13;;;;;;;;;;6233755;28;20021;-71
2023/07/06 06:37:51;;;;;;;2.38;1.27;;;;;;;;;;6238560;28;20604;-71
2023/07/06 06:40:51;;;;;;;1.20;1.08;;;;;;;;;;6242474;28;20087;-69
2023/07/06 06:43:51;;;;;;;2.08;1.20;;;;;;;;;;6240646;28;20025;-71
2023/07/06 06:46:52;;;;;;;1.60;1.50;;;;;;;;;;6237141;28;20342;-69
2023/07/06 06:49:52;;;;;;;1.75;1.20;;;;;;;;;;6240490;28;20586;-68
2023/07/06 06:52:53;;;;;;;2.63;1.52;;;;;;;;;;6239310;28;20132;-71
2023/07/06 06:55:53;;;;;;;1.67;1.57;;;;;;;;;;6238763;28;20052;-68
2023/07/06 06:58:54;;;;;;;1.60;1.50;;;;;;;;;;6241379;28;20283;-67
2023/07/06 07:01:54;;;;;;;1.67;1.50;;;;;;;;;;6239088;28;20040;-69
2023/07/06 07:04:59;;;;;;;1.42;1.33;;;;;;;;;;6235082;28;20276;-68
2023/07/06 07:07:59;;;;;;;1.75;1.40;;;;;;;;;;6239660;28;20025;-68
2023/07/06 07:10:59;;;;;;;1.70;1.50;;;;;;;;;;6241580;28;20025;-67
2023/07/06 07:13:59;;;;;;;2.17;1.47;;;;;;;;;;6241737;28;20715;-67
2023/07/06 07:17:01;;;;;;;1.60;1.50;;;;;;;;;;6239702;28;20271;-66
2023/07/06 07:20:01;;;;;;;1.65;1.52;;;;;;;;;;6236510;28;20153;-67
2023/07/06 07:23:01;;;;;;;1.63;1.50;;;;;;;;;;6236046;28;20517;-66
2023/07/06 07:26:03;;;;;;;1.47;1.37;;;;;;;;;;6237330;28;20033;-67
2023/07/06 07:29:03;;;;;;;1.70;1.50;;;;;;;;;;6235307;28;20028;-65
2023/07/06 07:32:04;;;;;;;1.98;1.65;;;;;;;;;;6236761;28;21995;-67
2023/07/06 07:35:05;;;;;;;1.73;1.63;;;;;;;;;;6239213;28;20116;-68
2023/07/06 07:38:06;;;;;;;2.38;1.70;;;;;;;;;;6239683;28;20136;-66
2023/07/06 07:41:07;;;;;;;2.17;1.98;;;;;;;;;;6239668;28;20064;-68
2023/07/06 07:44:08;;;;;;;2.10;1.90;;;;;;;;;;6239552;28;20155;-68
2023/07/06 07:47:09;;;;;;;2.10;1.88;;;;;;;;;;6238581;28;20032;-68
2023/07/06 07:50:09;;;;;;;2.70;1.88;;;;;;;;;;6236766;28;20029;-66
2023/07/06 07:53:10;;;;;;;2.15;1.83;;;;;;;;;;6238707;28;20125;-68
2023/07/06 07:56:12;;;;;;;2.70;2.03;;;;;;;;;;6237338;28;20188;-66
2023/07/06 07:59:12;;;;;;;2.78;2.10;;;;;;;;;;6237827;28;20309;-66
2023/07/06 08:02:13;;;;;;;2.20;1.85;;;;;;;;;;6239369;28;20030;-66
2023/07/06 08:05:13;;;;;;;2.60;2.20;;;;;;;;;;6238897;28;20029;-64
2023/07/06 08:08:13;;;;;;;2.43;2.00;;;;;;;;;;6241329;28;20028;-66
2023/07/06 08:11:16;;;;;;;3.10;1.97;;;;;;;;;;6238506;28;20264;-67
2023/07/06 08:14:32;;;;;;;2.25;2.05;;;;;;;;;;6241197;28;20256;-66
2023/07/06 08:17:32;;;;;;;4.82;1.83;;;;;;;;;;6240440;28;20573;-64
2023/07/06 08:20:33;;;;;;;3.03;1.90;;;;;;;;;;6238773;28;20387;-65
2023/07/06 08:23:33;;;;;;;2.30;1.95;;;;;;;;;;6237614;28;20113;-67
2023/07/06 08:26:33;;;;;;;3.37;1.87;;;;;;;;;;6233494;28;20018;-68
2023/07/06 08:29:34;;;;;;;2.50;2.30;;;;;;;;;;6240205;28;20524;-70
2023/07/06 08:32:34;;;;;;;2.40;2.20;;;;;;;;;;6236845;28;20029;-70
2023/07/06 08:35:35;;;;;;;4.33;2.33;;;;;;;;;;6231218;28;20776;-71
2023/07/06 08:38:38;;;;;;;2.85;2.20;;;;;;;;;;6238046;28;20306;-71
2023/07/06 08:41:41;;;;;;;2.33;2.13;;;;;;;;;;6238548;28;20043;-72
2023/07/06 08:44:54;;;;;;;4.43;2.25;;;;;;;;;;6236564;28;20026;-73
2023/07/06 08:47:56;;;;;;;2.35;1.95;;;;;;;;;;6238382;28;20030;-72
2023/07/06 08:50:59;;;;;;;2.22;2.03;;;;;;;;;;6236887;28;20018;-72
2023/07/06 08:54:10;;;;;;;2.33;2.10;;;;;;;;;;6226962;28;20462;-71
2023/07/06 08:57:15;;;;;;;2.95;1.92;;;;;;;;;;6234574;28;20378;-71
2023/07/06 09:00:15;;;;;;;2.70;2.40;;;;;;;;;;6233794;28;20037;-71
2023/07/06 09:03:15;;;;;;;2.50;2.30;;;;;;;;;;5888708;28;10000018;-71
2023/07/06 09:06:19;;;;;;;2.93;2.40;;;;;;;;;;6239040;28;20018;-71
2023/07/06 09:09:19;;;;;;;2.97;2.70;;;;;;;;;;6234277;28;20379;-71
2023/07/06 09:12:24;;;;;;;2.67;2.15;;;;;;;;;;6238768;28;20022;-69
2023/07/06 09:15:28;;;;;;;3.00;2.30;;;;;;;;;;6237787;28;20120;-73
2023/07/06 09:18:29;;;;;;;2.40;2.20;;;;;;;;;;6231985;28;20040;-69
2023/07/06 09:21:30;;;;;;;2.78;2.33;;;;;;;;;;6238564;28;20327;-71
2023/07/06 09:24:33;;;;;;;2.20;2.00;;;;;;;;;;6237181;28;20033;-70
2023/07/06 09:27:34;;;;;;;2.97;2.17;;;;;;;;;;6236732;28;20025;-68
2023/07/06 09:30:36;;;;;;;3.25;2.55;;;;;;;;;;6239396;28;20385;-69
2023/07/06 09:33:42;;;;;;;2.00;1.90;;;;;;;;;;6235068;28;20028;-71
2023/07/06 09:36:47;;;;;;;2.58;2.38;;;;;;;;;;6240105;28;20096;-71
2023/07/06 09:40:03;;;;;;;2.83;2.10;;;;;;;;;;6234020;28;20509;-73
2023/07/06 09:43:04;;;;;;;2.50;2.13;;;;;;;;;;6230754;28;20361;-72
2023/07/06 09:46:05;;;;;;;2.35;2.13;;;;;;;;;;6237171;28;20479;-70
2023/07/06 09:49:19;;;;;;;2.58;2.38;;;;;;;;;;6240497;28;20025;-70
2023/07/06 09:52:20;;;;;;;2.50;2.30;;;;;;;;;;6243225;28;20025;-71
2023/07/06 09:55:23;;;;;;;2.30;2.10;;;;;;;;;;6244540;28;20018;-71
2023/07/06 09:58:25;;;;;;;2.33;2.13;;;;;;;;;;6242982;28;20055;-71
2023/07/06 10:01:31;;;;;;;3.70;2.30;;;;;;;;;;6245668;28;20067;-69
2023/07/06 10:04:50;;;;;;;2.50;2.30;;;;;;;;;;6237731;28;20018;-71
2023/07/06 10:07:56;;;;;;;2.38;2.10;;;;;;;;;;6242824;28;20067;-71
2023/07/06 10:11:12;;;;;;;2.40;2.25;;;;;;;;;;6232394;28;20033;-71
2023/07/06 10:14:16;;;;;;;2.47;2.08;;;;;;;;;;6242784;28;20017;-73
2023/07/06 10:17:37;;;;;;;2.00;1.77;;;;;;;;;;6239200;28;20117;-71
2023/07/06 10:20:43;;;;;;;2.38;2.17;;;;;;;;;;6240810;28;20194;-69
2023/07/06 10:23:55;;;;;;;2.33;2.13;;;;;;;;;;6240849;28;20028;-70
2023/07/06 10:26:59;;;;;;;2.53;2.33;;;;;;;;;;6250833;28;20024;-70
2023/07/06 10:30:03;;;;;;;2.40;2.20;;;;;;;;;;6242047;28;20025;-72
2023/07/06 10:33:07;;;;;;;2.42;2.15;;;;;;;;;;6241477;28;20105;-72
2023/07/06 10:36:10;;;;;;;2.95;2.30;;;;;;;;;;6240316;28;20025;-71
2023/07/06 10:39:23;;;;;;;2.78;2.58;;;;;;;;;;6240524;28;20721;-72
2023/07/06 10:42:25;;;;;;;2.95;2.20;;;;;;;;;;6236782;28;20486;-71
2023/07/06 10:45:28;;;;;;;3.83;2.53;;;;;;;;;;6236038;28;20048;-70
2023/07/06 10:48:34;;;;;;;3.60;2.30;;;;;;;;;;6235565;28;20077;-72
2023/07/06 10:51:44;;;;;;;2.97;2.28;;;;;;;;;;6242795;28;20060;-70
2023/07/06 10:54:46;;;;;;;2.40;2.20;;;;;;;;;;6240260;28;20021;-70
2023/07/06 10:57:51;;;;;;;2.33;2.13;;;;;;;;;;6241602;28;20072;-71
2023/07/06 11:00:52;;;;;;;2.70;2.50;;;;;;;;;;6242133;28;20028;-70
2023/07/06 11:03:54;;;;;;;2.60;2.22;;;;;;;;;;6240296;28;20362;-71
2023/07/06 11:06:54;;;;;;;2.70;2.50;;;;;;;;;;6238397;28;21532;-72
2023/07/06 11:10:13;;;;;;;2.97;2.67;;;;;;;;;;6240299;28;20029;-71
2023/07/06 11:13:18;;;;;;;3.90;2.33;;;;;;;;;;6243447;28;20662;-72
2023/07/06 11:16:41;;;;;;;2.65;2.40;;;;;;;;;;6243912;28;20025;-71
2023/07/06 11:20:00;;;;;;;2.88;2.38;;;;;;;;;;6243776;28;20029;-72
2023/07/06 11:23:02;;;;;;;2.65;2.33;;;;;;;;;;6244893;28;20041;-73
2023/07/06 11:26:07;;;;;;;2.53;2.22;;;;;;;;;;6243467;28;20056;-71
2023/07/06 11:29:08;;;;;;;2.13;2.00;;;;;;;;;;6246142;28;20490;-71
2023/07/06 11:32:25;;;;;;;2.60;2.17;;;;;;;;;;6241927;28;20028;-69
2023/07/06 11:35:40;;;;;;;2.58;2.38;;;;;;;;;;6245071;28;20428;-70
2023/07/06 11:39:00;;;;;;;2.40;2.20;;;;;;;;;;6243243;28;20032;-70
2023/07/06 11:42:05;;;;;;;2.63;2.33;;;;;;;;;;6240659;28;20013;-70
2023/07/06 11:45:13;;;;;;;2.50;2.30;;;;;;;;;;6244931;28;20021;-70
2023/07/06 11:48:16;;;;;;;2.58;2.38;;;;;;;;;;6242582;28;20104;-71
2023/07/06 11:51:19;;;;;;;2.45;2.25;;;;;;;;;;6242827;28;20207;-71
2023/07/06 11:54:39;;;;;;;2.67;2.47;;;;;;;;;;6239984;28;20371;-70
2023/07/06 11:57:50;;;;;;;2.80;2.50;;;;;;;;;;6239430;28;20032;-70
2023/07/06 12:00:52;;;;;;;2.30;2.20;;;;;;;;;;6242005;28;20022;-69
2023/07/06 12:03:56;;;;;;;2.72;2.50;;;;;;;;;;6241308;28;20393;-72
2023/07/06 12:06:57;;;;;;;2.65;2.45;;;;;;;;;;6237017;28;20022;-71
2023/07/06 12:10:02;;;;;;;2.70;2.50;;;;;;;;;;6243353;28;20033;-71
2023/07/06 12:13:17;;;;;;;2.55;2.38;;;;;;;;;;6243817;28;20052;-71
2023/07/06 12:16:25;;;;;;;2.60;2.40;;;;;;;;;;6244656;28;20025;-71
2023/07/06 12:19:25;;;;;;;2.80;2.50;;;;;;;;;;6241727;28;20068;-71
2023/07/06 12:22:25;;;;;;;2.63;2.43;;;;;;;;;;6241960;28;20026;-71
2023/07/06 12:25:27;;;;;;;2.95;2.45;;;;;;;;;;6250231;28;20109;-72
2023/07/06 12:28:31;;;;;;;2.72;2.53;;;;;;;;;;6250189;28;20075;-73
2023/07/06 12:31:31;;;;;;;2.95;2.20;;;;;;;;;;6249493;28;20099;-71
2023/07/06 12:34:32;;;;;;;3.05;2.40;;;;;;;;;;6244364;28;20046;-72
2023/07/06 12:37:32;;;;;;;3.08;2.75;;;;;;;;;;6250137;28;20040;-72
2023/07/06 12:40:34;;;;;;;2.80;2.60;;;;;;;;;;6247309;28;20512;-72
2023/07/06 12:43:34;;;;;;;2.58;2.38;;;;;;;;;;6250914;28;20044;-72
2023/07/06 12:46:35;;;;;;;2.50;2.30;;;;;;;;;;6250155;28;20017;-70
2023/07/06 12:49:44;;;;;;;3.55;2.60;;;;;;;;;;6249116;28;20469;-72
2023/07/06 12:52:45;;;;;;;3.20;2.85;;;;;;;;;;6246741;28;20052;-70
2023/07/06 12:55:45;;;;;;;3.13;2.75;;;;;;;;;;6242982;28;20031;-71
2023/07/06 12:58:47;;;;;;;2.40;2.23;;;;;;;;;;6247589;28;20029;-70
2023/07/06 13:01:47;;;;;;;2.58;2.40;;;;;;;;;;6245269;28;20021;-71
2023/07/06 13:04:48;;;;;;;2.53;2.43;;;;;;;;;;6245418;28;20362;-71
2023/07/06 13:07:50;;;;;;;2.67;2.47;;;;;;;;;;6241473;28;20022;-69
2023/07/06 13:10:59;;;;;;;3.03;2.65;;;;;;;;;;6237282;28;20067;-70
2023/07/06 13:14:04;;;;;;;2.83;2.63;;;;;;;;;;6229846;28;20335;-70
2023/07/06 13:17:25;;;;;;;3.00;2.80;;;;;;;;;;6246525;28;20022;-68
2023/07/06 13:20:25;;;;;;;3.00;2.70;;;;;;;;;;6243230;28;20466;-71
2023/07/06 13:23:28;;;;;;;3.03;2.73;;;;;;;;;;6243778;28;20064;-71
2023/07/06 13:26:28;;;;;;;2.70;2.50;;;;;;;;;;6244488;28;20033;-71
2023/07/06 13:29:29;;;;;;;2.70;2.50;;;;;;;;;;6250995;28;20025;-69
2023/07/06 13:32:29;;;;;;;2.30;2.10;;;;;;;;;;6236366;28;20259;-69
2023/07/06 13:35:29;;;;;;;2.70;2.50;;;;;;;;;;6252598;28;20425;-71
2023/07/06 13:38:29;;;;;;;2.47;2.27;;;;;;;;;;6254228;28;20029;-71
2023/07/06 13:41:30;;;;;;;3.03;2.23;;;;;;;;;;6252834;28;20021;-71
2023/07/06 13:44:30;;;;;;;2.50;2.30;;;;;;;;;;6250852;28;20033;-71
2023/07/06 13:47:31;;;;;;;2.47;2.27;;;;;;;;;;6250129;28;20552;-70
2023/07/06 13:50:31;;;;;;;2.60;2.40;;;;;;;;;;6250666;28;20500;-70
2023/07/06 13:53:32;;;;;;;2.60;2.40;;;;;;;;;;6248094;28;20032;-70
2023/07/06 13:56:33;;;;;;;2.60;2.40;;;;;;;;;;6248218;28;20466;-70
2023/07/06 13:59:33;;;;;;;2.50;2.30;;;;;;;;;;6252283;28;20538;-70
2023/07/06 14:02:34;;;;;;;2.67;2.47;;;;;;;;;;6251084;28;20069;-69
2023/07/06 14:05:37;;;;;;;2.90;2.70;;;;;;;;;;6249542;28;20053;-69
2023/07/06 14:08:37;;;;;;;2.60;2.40;;;;;;;;;;6247079;28;20017;-68
2023/07/06 14:11:39;;;;;;;2.60;2.40;;;;;;;;;;6245928;28;20442;-69
2023/07/06 14:14:39;;;;;;;2.72;2.53;;;;;;;;;;6243936;28;20013;-68
2023/07/06 14:17:39;;;;;;;2.70;2.50;;;;;;;;;;6243855;28;20056;-67
2023/07/06 14:20:44;;;;;;;4.50;2.70;;;;;;;;;;6242670;28;20113;-67
2023/07/06 14:23:44;;;;;;;2.92;2.55;;;;;;;;;;6243969;28;20056;-70
2023/07/06 14:26:45;;;;;;;4.20;2.77;;;;;;;;;;6244164;28;20040;-70
2023/07/06 14:29:45;;;;;;;2.70;2.50;;;;;;;;;;6246177;28;20189;-70
2023/07/06 14:32:46;;;;;;;2.55;2.35;;;;;;;;;;6243300;28;20017;-67
2023/07/06 14:35:46;;;;;;;2.53;2.43;;;;;;;;;;6243707;28;20022;-70
2023/07/06 14:38:46;;;;;;;2.28;2.08;;;;;;;;;;6245473;28;20021;-70
2023/07/06 14:41:47;;;;;;;2.57;2.37;;;;;;;;;;6246421;28;20032;-70
2023/07/06 14:44:47;;;;;;;2.63;2.42;;;;;;;;;;6247558;28;20390;-68
2023/07/06 14:47:47;;;;;;;3.13;2.47;;;;;;;;;;5899897;28;9999885;-69
2023/07/06 14:50:48;;;;;;;2.17;2.08;;;;;;;;;;6253457;28;20260;-69
2023/07/06 14:53:48;;;;;;;2.70;2.50;;;;;;;;;;6250437;28;20101;-69
2023/07/06 14:56:48;;;;;;;2.70;2.50;;;;;;;;;;6243142;28;20144;-69
2023/07/06 14:59:49;;;;;;;2.97;2.67;;;;;;;;;;6250797;28;20081;-69
2023/07/06 15:02:50;;;;;;;2.10;2.00;;;;;;;;;;6247358;28;20104;-69
2023/07/06 15:05:53;;;;;;;2.47;2.28;;;;;;;;;;6247328;28;20017;-68
2023/07/06 15:08:53;;;;;;;2.92;2.72;;;;;;;;;;6245311;28;20025;-68
2023/07/06 15:11:53;;;;;;;2.63;2.43;;;;;;;;;;6244832;28;20027;-69
2023/07/06 15:14:53;;;;;;;2.43;2.10;;;;;;;;;;6245387;28;20389;-69
2023/07/06 15:17:54;;;;;;;2.67;2.47;;;;;;;;;;6244691;28;20037;-68
2023/07/06 15:21:11;;;;;;;2.60;2.40;;;;;;;;;;6258639;28;20056;-68
2023/07/06 15:24:11;;;;;;;2.45;2.15;;;;;;;;;;6245872;28;20385;-67
2023/07/06 15:27:11;;;;;;;3.50;3.27;;;;;;;;;;6245538;28;20022;-69
2023/07/06 15:30:12;;;;;;;3.10;2.80;;;;;;;;;;6247684;28;20605;-68
2023/07/06 15:33:12;;;;;;;2.80;2.60;;;;;;;;;;6250830;28;20490;-70
2023/07/06 15:36:12;;;;;;;2.33;2.17;;;;;;;;;;6256101;28;20021;-70
2023/07/06 15:39:13;;;;;;;3.90;2.60;;;;;;;;;;6254739;28;20075;-69
2023/07/06 15:42:13;;;;;;;3.72;3.42;;;;;;;;;;6252951;28;20018;-69
2023/07/06 15:45:13;;;;;;;2.90;2.70;;;;;;;;;;6247587;28;20559;-69
2023/07/06 15:48:13;;;;;;;3.80;3.50;;;;;;;;;;6245637;28;20030;-68
2023/07/06 15:51:14;;;;;;;3.15;2.63;;;;;;;;;;6242840;28;20041;-71
2023/07/06 15:54:14;;;;;;;2.43;2.23;;;;;;;;;;6244663;28;20029;-69
2023/07/06 15:57:14;;;;;;;3.65;2.33;;;;;;;;;;6241805;28;20032;-69
2023/07/06 16:00:15;;;;;;;2.70;2.50;;;;;;;;;;6245937;28;20017;-69
2023/07/06 16:03:15;;;;;;;3.13;2.53;;;;;;;;;;6238088;28;20239;-69
2023/07/06 16:06:19;;;;;;;2.67;2.47;;;;;;;;;;6239155;28;20493;-67
2023/07/06 16:09:19;;;;;;;2.85;2.05;;;;;;;;;;6243833;28;20481;-69
2023/07/06 16:12:19;;;;;;;2.00;1.87;;;;;;;;;;6244417;28;20045;-70
2023/07/06 16:15:19;;;;;;;3.37;1.93;;;;;;;;;;6243206;28;20261;-71
2023/07/06 16:18:20;;;;;;;2.17;2.00;;;;;;;;;;6236438;28;20041;-70
2023/07/06 16:21:20;;;;;;;2.80;2.17;;;;;;;;;;6241450;28;20398;-69
2023/07/06 16:24:20;;;;;;;3.33;2.30;;;;;;;;;;6242377;28;20068;-70
2023/07/06 16:27:20;;;;;;;4.40;2.10;;;;;;;;;;6242194;28;20057;-69
2023/07/06 16:30:23;;;;;;;2.93;2.23;;;;;;;;;;6238601;28;20021;-70
2023/07/06 16:33:23;;;;;;;5.20;4.68;;;;;;;;;;6243236;28;20684;-70
2023/07/06 16:36:24;;;;;;;4.45;3.42;;;;;;;;;;6245924;28;20017;-70
2023/07/06 16:39:24;;;;;;;4.17;3.47;;;;;;;;;;6238381;28;20148;-70
2023/07/06 16:42:24;;;;;;;3.13;2.83;;;;;;;;;;6242568;28;20331;-70
2023/07/06 16:45:24;;;;;;;2.70;2.40;;;;;;;;;;6242296;28;20079;-68
2023/07/06 16:48:25;;;;;;;4.78;2.40;;;;;;;;;;5893628;28;9999939;-71
2023/07/06 16:51:25;;;;;;;2.60;2.40;;;;;;;;;;6237010;28;20033;-71
2023/07/06 16:54:25;;;;;;;2.63;2.10;;;;;;;;;;6239061;28;20026;-70
2023/07/06 16:57:26;;;;;;;2.28;2.08;;;;;;;;;;6239044;28;20021;-69
2023/07/06 17:00:26;;;;;;;2.93;2.20;;;;;;;;;;6241658;28;20439;-69
2023/07/06 17:03:26;;;;;;;5.03;3.97;;;;;;;;;;6240871;28;20136;-69
2023/07/06 17:06:27;;;;;;;4.82;4.32;;;;;;;;;;6243875;28;20029;-69
2023/07/06 17:09:27;;;;;;;4.35;2.90;;;;;;;;;;6237398;28;20533;-67
2023/07/06 17:12:28;;;;;;;3.83;2.83;;;;;;;;;;6238659;28;20021;-69
2023/07/06 17:15:28;;;;;;;3.67;2.28;;;;;;;;;;6235243;28;20413;-69
2023/07/06 17:18:29;;;;;;;3.03;2.70;;;;;;;;;;6232837;28;20044;-69
2023/07/06 17:21:29;;;;;;;2.63;2.22;;;;;;;;;;6238457;28;20037;-70
2023/07/06 17:24:29;;;;;;;2.50;2.03;;;;;;;;;;6235390;28;20454;-71
2023/07/06 17:27:29;;;;;;;2.73;2.00;;;;;;;;;;6230733;28;20116;-69
2023/07/06 17:30:30;;;;;;;2.83;1.92;;;;;;;;;;6232666;28;20331;-70
2023/07/06 17:33:30;;;;;;;2.67;2.22;;;;;;;;;;6233196;28;20114;-69
2023/07/06 17:36:30;;;;;;;2.83;2.33;;;;;;;;;;6234375;28;20438;-69
2023/07/06 17:39:31;;;;;;;2.63;2.40;;;;;;;;;;6230451;28;20575;-69
2023/07/06 17:42:31;;;;;;;3.07;2.20;;;;;;;;;;6233435;28;20026;-70
2023/07/06 17:45:31;;;;;;;2.77;2.40;;;;;;;;;;6229638;28;20060;-69
2023/07/06 17:48:33;;;;;;;3.20;2.43;;;;;;;;;;6235274;28;20032;-70
2023/07/06 17:51:33;;;;;;;2.47;2.00;;;;;;;;;;6228889;28;20793;-68
2023/07/06 17:54:33;;;;;;;4.00;2.37;;;;;;;;;;6229172;28;20025;-69
2023/07/06 17:57:33;;;;;;;2.50;2.20;;;;;;;;;;6236411;28;20029;-69
2023/07/06 18:00:33;;;;;;;3.83;2.27;;;;;;;;;;6242614;28;20256;-69
2023/07/06 18:03:34;;;;;;;2.50;1.77;;;;;;;;;;6261699;28;20286;-70
2023/07/06 18:06:35;;;;;;;3.05;2.42;;;;;;;;;;6268422;28;20033;-71
2023/07/06 18:09:35;;;;;;;3.50;2.65;;;;;;;;;;6245867;28;20025;-69
2023/07/06 18:12:36;;;;;;;3.03;2.53;;;;;;;;;;6235571;28;20265;-71
2023/07/06 18:15:37;;;;;;;2.90;2.25;;;;;;;;;;6241263;28;20573;-68
2023/07/06 18:18:37;;;;;;;4.07;2.30;;;;;;;;;;6237563;28;20052;-69
2023/07/06 18:21:37;;;;;;;4.00;2.33;;;;;;;;;;6233588;28;20025;-69
2023/07/06 18:24:38;;;;;;;3.03;2.70;;;;;;;;;;6227305;28;20294;-70
2023/07/06 18:27:38;;;;;;;3.55;2.67;;;;;;;;;;6228719;28;20029;-69